Espace membre
Imprimable
Challenges > Delhalle - Evrehailles, 05/04/2014, BEL - Le Trail des Sauvages
Liste des rapports > Delhalle - 34km - Classement
Recherche: Page: [1]
144 Entrées
 
Les réclamations ne sont plus acceptées, les résultats sont considérés comme définitifs.
RangNrNomAgeIOCLigueEquipeRéelTempsTkmMoy.ScrPtsLocalité
1.1811LOTZ RAY37NLDTV STEIN2:49:342:49:425:00 12.0211110VA STEIN
2.1553DE BERGÉ BART38BELOLSE/3:01:503:01:595:22 11.2151029SINT-JOB-IN-'T-GOOR
3.1585DE WITTE RODNEY36BEL3:03:013:03:285:24 11.1261021RONSE
4.1671LIVIAU DAVID35BEL3:04:083:04:175:26 11.0771014RENAIX
5.659MAHIA SEBASTIEN28BELFCHAMYSTERE3:06:323:06:405:30 10.9311996NAMUR
6.1641HUBERT CHARLES31BELPASSIVITEDEVANT.BE3:06:123:07:055:31 10.9013997MONS
7.1871CHRISTIAENS THOMAS33BEL3:06:553:07:075:31 10.9014992
8.1615GOORIS FLORENTIN31BELTRC MONTLEBAN3:07:483:07:575:32 10.8516985CHERAIN
9.1582DEVOS JIMMY36BELT4F3:09:223:09:485:35 10.7519974CHAUDFONTAINE
10.1690MEUL MATTHIAS29BEL3KANT3KANT3:10:193:10:295:37 10.7121966GENT
11.1832PASQUE FABRICE38BELACCOTEAM SALOMON BELGIUM3:13:043:13:125:41 10.5624948COUILLET
12.1781VERRUE VINCENT38BELWAL'COURSE3:14:443:14:555:44 10.4726937WALCOURT
13.1662LERAT PIERRE-JEAN34BELRCBRCB3:16:233:16:385:47 10.3829925IXELLES
14.1891VERMEULEN KEVIN22FRARCB3:16:303:16:385:47 10.3730924VILLENEUVE DE MARC
15.1709PHILIPPOT HENRY31BEL3:16:323:16:525:48 10.3631923WATERMAEL-BOITSFORT
16.1554DE BOCK PIETER30BELVOLH3:18:193:18:355:51 10.2732912BEVEREN
17.1883DUMONT MATHIEU32BELMADRES3:17:513:18:445:51 10.2733914WOLUWE
18.1633HENQUINET QUENTIN25BELTRAIL'IN BASTOGNE3:18:593:19:105:52 10.2434907BASTOGNE
19.289MARLE LAURENT39BEL3:19:243:19:415:53 10.2236903MORNIMONT
20.1613GILSON FRANÇOIS30BELTRAIL FOR FUN3:19:393:20:085:54 10.1937901WARSAGE
21.1876LAMBERT GREGORY36BEL3:20:443:21:065:55 10.1441892
22.1510BASTIAENS WIM36BELYELLOW CITY BASTARDS3:21:373:21:555:57 10.1042887GEEL
23.1872KEMPINAIRE JULIEN32BEL3:23:293:23:376:00 10.0245874
24.1548DAMAS CHRISTOPHE35BEL3:23:223:23:386:00 10.0246874BRUXELLES
25.1691MIEVIS STÉPHANE35BELLDLV3:23:513:24:336:01 9.9750868LAEKEN
26.1862MANIQUET ETIENNE38BEL3:24:493:25:226:03 9.9355859SAINT-MARC
27.1566DELERS MAXIMILIEN28BELJACO/CTA3:27:183:27:286:07 9.8360842MONS
28.121DEVEIRMAN DIDIER34BELDACTRAINING 73:29:303:29:386:10 9.7364827BEERSEL
29.1520BONNIER OLIVIER35BELTEAM RAIDLIGHT3:30:213:30:356:12 9.6966821MÉVERGNIES
30.1502ALBERT JEAN-FRANÇOIS35BELCARACO'TRAILERS3:31:153:31:436:14 9.6469814LUSTIN
31.1815GIVRON REGIS24BELWAIKIKI THIMEON3:32:053:33:056:17 9.5773807
32.1776VERBESSELT KEVIN34BEL3:33:003:33:196:17 9.5674801WATERMAEL-BOITSFORT
33.1874CASSART THIBAULT32BEL3:33:003:33:196:17 9.5675800
34.1570DENONCIN MAXIME25BEL3:36:193:36:556:23 9.4179780FAYS-LES-VENEURS
35.1749VAN DEN BOSSCHE DAVID39BEL3:36:093:36:586:23 9.4080780OPWIJK
36.1791ZANIER LAURENT39BELTEAM MADRES3:36:423:37:076:24 9.4081777MAURAGE
37.1821GERARD JEROME31BELGTTS3:38:033:38:356:26 9.3388765
38.1574DERMINE BRUNO37BEL3:38:153:38:416:26 9.3389763BIOUL
39.1514BERNARD NICOLAS33FRA3:38:443:39:096:27 9.3194757GRAND-RECHAIN
40.985CIEPERS JOHNNY22BEL3:38:203:39:156:27 9.3095758HASTIERE
41.1515BLANCKAERT JEROEN32BEL3:40:283:40:426:30 9.24103741WIEZE
42.1595DUFEY CÉDRIC34BEL3:40:353:40:596:30 9.23106738NATOYE
43.1744TAVARES DIOGO37PRTPORTUGAL RUNNING3:42:143:42:256:33 9.17109728BRUXELLES
44.1608GEERLINGS ARNE35BEL3:41:413:42:256:33 9.17110730VIERSEL
45.1625HARPIGNY CEDRIC38BEL3:42:573:43:146:34 9.14112722OBOURG
46.1604FOCCROULLE GUILLAUME27BELTRAIL FOR FUN3:45:133:45:426:39 9.04119705ESNEUX
47.1818GÉRARD JONATHAN31BELGTTS3:45:153:45:446:39 9.04120704FLORENVILLE
48.1596DUJARDIN GAUTHIER36BEL3:46:263:46:496:41 8.99123696MOHIVILLE
49.1589DODRIMONT CEDRIC30BELTRAIL'IN BASTOGNE3:46:383:46:516:41 8.99125694BASTOGNE
50.1679MALHERBE BENOIT35BELTRAIL FOR FUN3:47:113:47:386:42 8.96128689ESNEUX
51.1583DEWEZ MICHAEL34BELGSK FUN CLUB3:48:043:48:176:43 8.94131682OPHAIN
52.1720PRIETO SAIZ LORENZO35ESPEASA RUNNING CLUB3:48:153:48:356:44 8.92133680GIJON
53.1675LUMEN EMMANUEL38BEL3:48:423:49:116:45 8.90141672ATH
54.1708PHILIPPIN GREGORY35BEL3:49:473:50:076:47 8.87143665LANDENNE
55.1824DUCARNE LAURENT30FRA3:49:523:50:116:47 8.86144664LILLE
56.1537CHARLES CYRILLE31BELFAT TEAM3:50:483:51:236:49 8.82152653JUPILLE
57.1774VANSANTVOET STÉPHANE38BELRUNNING TEAM11.11.113:50:313:51:326:49 8.81153654BRUXELLES
58.519MATHIEU ALEXIS23BELJCCS3:51:353:51:526:50 8.80155647GEDINNE
59.1661LEPINOIS NICOLAS27BELTRAIL'IN BASTOGNE3:53:023:53:166:52 8.75160637BASTOGNE
60.1763VANDEVORST BENJAMIN28BEL3:54:153:55:046:55 8.68165627LOUVAIN-LA-NEUVE
61.1864BLAIN THOMAS35BEL3:54:363:55:186:56 8.67166625
62.1682MARÉCHAL BAPTISTE32BELCARACO TRAILER3:54:443:55:386:56 8.66167623ACHET
63.447BRUGGEMAN DAVID39BELSPTWAVRE3:56:593:57:397:00 8.58170610LIMELETTE
64.1503AMAND LUDOVIC36BEL3:58:493:59:187:03 8.52176597MARCHIN
65.266MUNAUT JEREMY37BELRCNAMUR3:58:173:59:367:03 8.51178598SAINT SERVAIS
66.1782VERSCHUEREN RAF33BEL4:00:584:01:437:07 8.44187579BEERZEL
67.412OERLEMANS THOMAS28BELCPMV4:01:074:02:287:08 8.41188577MARCINELLE
68.1611GEORGES SEBASTIEN38BEL4:01:494:02:417:09 8.41190573ETHE
69.1634HERMAN GRÉGORY37BEL4:02:334:02:567:09 8.40191569SPONTIN
70.1780VERHEYEN CÉDRIC36BEL4:01:534:03:007:09 8.40192571BEERSEL
71.1668LIBERT JULIEN26BEL4:03:224:03:517:11 8.37196561NAMUR
72.1840FAYEULLE THIBAUT35BEL4:04:434:05:337:14 8.31198554
73.1669LINOTTE LUDOVIC37BEL4:05:224:05:457:14 8.30200549WAREMME
74.1523BOUT KRISTOF38BEL4:05:374:06:087:15 8.29201547TORHOUT
75.1565DELAPLACE PIERRE36BELSMAC4:05:434:06:297:15 8.28202546PROFONDEVILLE
76.1672LONEZ THOMAS32BEL4:05:564:07:087:17 8.25204543BRUXELLES
77.1822GRANDJEAN QUENTIN33BELGTTS4:07:024:07:337:17 8.24205538
78.1870LANNERS LAURENT37BELCAB4:10:034:10:217:22 8.15214518LIMELETTE
79.1547CRABBE FABRICE39BEL4:11:094:11:267:24 8.11218510ANHÉE
80.1723REMAN SIMON28BEL4:12:144:12:587:27 8.06221503SAINT-SERVAIS
81.1722RAHIER PIERRE35BEL4:13:104:13:357:28 8.05223497THON
82.1535CHABOTEAUX JÉRÔME27BELCAP BEAURAING4:13:054:14:087:29 8.03225496HOUR
83.1627HAYET DAVID27BELCAP BEAURAING4:13:064:14:107:29 8.03226495HOUYET
84.1710PICOT BERTRAND28BELCAP BEAURAING4:13:074:14:107:29 8.03227494HOUYET
85.1849SIMON NICOLAS38BELRCB4:14:294:15:127:31 7.99232484EVERE
86.1660LEJEUNE JONATHAN29BELTRAIL FOR FUN4:14:284:15:327:31 7.98236481ESNEUX
87.1736SIMON NICOLAS37BEL4:14:294:15:337:31 7.98237481MARCHIN
88.1888KOUTSTAAL JONATHAN36BEL4:15:414:16:107:33 7.96238475
89.1562DEFOY CHARLES32BEL4:17:064:17:407:35 7.92240467HOGNE
90.1850SENANEUCH RÉMI36FRAUSBW4:17:414:17:587:36 7.91241464BRUXELLES
91.533MARTIN LAURENT33BELRCNAMUR4:16:404:17:597:36 7.91242467NAMUR
92.1861LETHE GREGORY37BEL4:17:294:18:227:36 7.90243463WAVRE
93.1607FRÈRE BRUNO38BEL4:19:064:20:097:40 7.84251450ESNEUX
94.1884MERCENIER BENOIT38BELANTILOB4:21:424:22:387:44 7.77262431
95.1878MARSIN GAETAN39BELRCBMYSTERE4:23:204:24:037:46 7.73264422
96.1879LOMBAERT SÉBASTIEN39BELRCB4:23:204:24:037:46 7.73265422BRUXELLES
97.1857VAN RECHEM FRANÇOIS37BELCEPAL4:22:484:24:067:47 7.72266423SCHAARBEEK
98.1592DUBOIS XAVIER36BEL4:25:284:26:007:50 7.67272407ATTERT
99.766PENTE MATTHIAS38BELJCQ4:26:294:27:337:53 7.62276400FRAMERIES
100.1859VERSTRAETEN YANNICK32BEL4:26:444:28:057:54 7.61278398NIL-SAINT-VINCENT-SAINT-MARTIN
101.784BIENFAIT BENJAMIN31BELL'EOLIEN4:27:174:28:327:54 7.60280394QUEVY LE PETIT
102.1758VANDERHASTEN MATHIEU38BELJOGGING BLANMONT4:27:434:28:367:54 7.59281391GENTINNES
103.29LAURENT JOHN38BELARCHARCH CINEY4:28:364:28:597:55 7.58283386PURNODE
104.1577DESMET WOUTER34BELKOLENWOUDLOPERS4:28:184:29:297:56 7.57285386LANDEN
105.1532CARRÉ STÉPHANE38BEL4:30:014:30:207:58 7.55288377BRAINE L'ALLEUD
106.1772VAN REEPINGHEN GRÉGOIRE26BEL4:30:584:31:267:59 7.52289372BRUXELLES
107.1670LIPSCH BART28NLDSCOPIAS4:32:294:33:088:02 7.47297359VENLO
108.1892VANDERLINDEN DENIS36BEL4:32:254:33:178:03 7.46299358CHÊNÉE
109.1754VANDENHOLT BJORN34BEL4:32:464:33:238:03 7.46300356GUTSCHOVEN
110.1737SIMON SAMUEL39BELNICOTORUN4:32:374:33:298:03 7.46301356THIBESSART
111.1638HOUBION MICHAËL34BEL4:33:124:34:188:05 7.44305350VEDRIN
112.862GIROULLE LIONEL38BEL4:37:084:38:148:11 7.33317326WANFERCÉE BAULET
113.250MAQUET DENIS28BELARCH4:37:084:38:168:12 7.33319324NIVELLES
114.1643JACQUEMIN FREDERIC38BELCOMPAGNONS DE LA MERVEILL4:40:224:41:408:18 7.24329304COURT-ST-ETIENNE
115.1711PIERARD FRANÇOIS35BEL4:41:134:41:548:18 7.24332298ETTERBEEK
116.1518BODY OLIVIER38BEL4:44:454:45:398:25 7.14339279DURNAL
117.689DEGROOTE NICOLAS39BEL4:47:184:47:398:28 7.09345265BRUXELLES
118.1642HUYSECOM CHRISTOPHE35BEL4:47:074:47:528:28 7.09346265GRAND-LEEZ
119.1848DUCHENE MATTHIEU32BEL4:46:554:47:548:29 7.09347264
120.1858EWBANK PATRICK35BEL4:47:314:48:508:30 7.06349261BAISY-THY
121.544ROCHUS DAVID32BEL4:50:044:50:048:32 7.03354247SCHAERBEEK
122.1598EWBANK GEOFFREY34BELKAJ4:51:184:52:378:37 6.97360238WALHAIN
123.1867LECOMTE AURIAN28BELFRERAU TEAM4:53:374:54:368:40 6.92368223DOUR
124.1866LECOMTE AUBIN31BELFRERAU TEAM4:53:374:54:368:40 6.92369222
125.1802REVILLOD SEBASTIEN33BELFLEU4:54:364:55:148:41 6.91373216SAINT GERARD
126.543LESTRATE OLIVIER34BELHEIN4:56:014:56:208:43 6.88375209ASSESSE
127.1825ROCHET MANU39BEL4:56:134:56:598:45 6.87377207FREUX
128.703GUYON DE MONTLIVAULT THOM27BEL5:01:385:01:388:53 6.76386179SART MELIN
129.1814LANNOO MICHAEL39BEL5:01:395:02:508:55 6.74391176GOTTIGNIES
130.1830BAETENS ALAIN36BELBRUSSUSE ATHLETIEK5:02:495:03:588:57 6.71394169
131.1829WAUTERS BART38BELBAV5:02:535:04:028:57 6.71395168
132.820BIENFAIT QUENTIN36BELMSF5:03:445:04:588:59 6.69397164BRAY
133.911DE VRIENDT JEFFRY32BELRCNAMUR5:07:595:09:209:06 6.59405142GILLY
134.1725ROLAND FRANÇOIS35BEL5:09:375:10:359:09 6.57407135LEIGNON
135.1717POLLET MANU28BELLES BRANLEURS5:11:005:12:129:11 6.53410127IXELLES
136.1605FRANÇOIS CHRISTOPHE38BEL5:27:385:28:359:40 6.2142657TOURNAI
137.1555DE BODT THOMAS33BEL5:28:535:29:519:43 6.1843050OETINGEN
DSQ1889PHILIPPENS CHRISTOPHE DENIS38BELOUPEYE
DSQ1881STOUFFS ADRIEN22BELJC RONVAUOTTIGNIES
DSQ1739SMEYERS NICOLAS23BELTRAKKS PEGASUS TEAM3:11:523:13:04BRUXELLES
DNF1543COLOMBANI VICTOR22FRABRUXELLES
DNF1561DEFLEUR SAMUEL38BELSOYE
DNF707NEMANN BRUNO32BELRCNAMURWARTET
DNF1735SIMOEN HENRI29BELMARIAKERKE
DNF: abandon; DSQ: disqualifié; Vitesse en km/h
Page: [1]